Flight Track Log - Related Links

Times and Time Zones

All times are in EDT time to prevent confusion due to time zone crossing. See the N109LU flight status page for this flight to view local times or setup timezone preferences in your user account.

Time Position Orientation Groundspeed Altitude Reporting Facility
EDT Latitude Longitude Course Direction KTS MPH feet Rate Location/Type
Tue 10:30:13 AM 27.2114 -80.2964 299° West 84 97 2,200  Level Miami Center
Tue 10:31:15 AM 27.2003 -80.3194 242° Southwest 89 102 2,800 387 Climbing Miami Center
Tue 10:32:17 AM 27.1725 -80.3311 200° South 98 113 3,000 98 Climbing Miami Center
Tue 10:33:18 AM 27.1453 -80.3450 204° Southwest 109 125 3,000 -49 Level Miami Center
Tue 10:34:00 AM 26.9699 -80.1912 173° South  Level Estimated
Tue 10:34:20 AM 27.1142 -80.3539 194° South 109 125 2,900  Level Miami Center
Tue 10:35:22 AM 27.0842 -80.3653 199° South 110 127 3,000  Climbing Miami Center
Tue 10:36:23 AM 27.0539 -80.3789 202° Southwest 110 127 2,900 -49 Descending Miami Center
Tue 10:37:25 AM 27.0258 -80.3914 202° Southwest 110 127 2,900  Level Miami Center
Tue 10:38:27 AM 26.9958 -80.4022 198° South 110 127 2,900 49 Level Miami Center
Tue 10:39:28 AM 26.9661 -80.4172 204° Southwest 111 128 3,000  Climbing Miami Center
Tue 10:40:30 AM 26.9367 -80.4311 203° Southwest 111 128 2,900 -48 Descending Miami Center
Tue 10:41:32 AM 26.9072 -80.4439 201° Southwest 110 127 2,900 48 Level Miami Center
Tue 10:42:34 AM 26.8797 -80.4547 199° South 110 127 3,000 49 Climbing Miami Center
Tue 10:43:35 AM 26.8489 -80.4683 201° Southwest 110 127 3,000 -49 Level Miami Center
Tue 10:44:37 AM 26.8186 -80.4803 199° South 111 128 2,900  Descending Miami Center
Tue 10:45:39 AM 26.7869 -80.4833 185° South 112 129 3,000  Climbing Miami Center
Tue 10:46:41 AM 26.7547 -80.4764 169° South 115 132 2,900 -48 Descending Miami Center
Tue 10:47:43 AM 26.7214 -80.4703 171° South 113 130 2,900  Level Miami Center
Tue 10:48:44 AM 26.6900 -80.4667 174° South 116 133 2,900  Level Miami Center
Tue 10:49:46 AM 26.6569 -80.4639 176° South 116 133 2,900  Level Miami Center
Tue 10:50:48 AM 26.6222 -80.4564 169° South 114 131 2,900 48 Level Miami Center
Tue 10:51:50 AM 26.5928 -80.4489 167° South 112 129 3,000 48 Climbing Miami Center
Tue 10:52:52 AM 26.5753 -80.4128 118° Southeast 117 135 3,000 -48 Level Miami Center
Tue 10:53:54 AM 26.5578 -80.3814 122° Southeast 118 136 2,900  Descending Miami Center
Tue 10:54:56 AM 26.5433 -80.3511 118° Southeast 111 128 3,000 48 Climbing Miami Center
Tue 10:55:58 AM 26.5411 -80.3122 94° East 120 138 3,000 -48 Level Miami Center
Tue 10:57:00 AM 26.5467 -80.2742 81° East 121 139 2,900  Descending Miami Center
Tue 10:58:02 AM 26.5506 -80.2344 84° East 122 140 3,000  Climbing Miami Center
Tue 10:59:04 AM 26.5539 -80.1978 84° East 122 140 2,900  Descending Miami Center
Tue 11:00:06 AM 26.5331 -80.1686 129° Southeast 119 137 3,000 48 Climbing Miami Center
Tue 11:01:08 AM 26.5131 -80.1433 131° Southeast 115 132 3,000 -242 Level Miami Center
Tue 11:02:10 AM 26.5144 -80.1061 88° East 123 142 2,500 -489 Descending Miami Center
Tue 11:03:23 AM 26.4778 -80.1014 173° South 111 128 1,900 -387 Descending Miami Center
Tue 11:04:14 AM 26.4564 -80.1022 182° South 104 120 1,700 -197 Descending Miami Center
Tue 11:04:24 AM 26.4506 -80.1039 194° South 101 116 1,700 -581 Level Miami Center
Tue 11:05:16 AM 26.4286 -80.1039 180° South 94 108 1,100 -526 Descending Miami Center
Tue 11:06:18 AM 26.4025 -80.1081 188° South 91 105 700 -194 Descending Miami Center
Tue 11:07:20 AM 26.3828 -80.1231 214° Southwest 88 101 700  Level Miami Center
Tue 11:07:33 AM 26.3800 -80.1264 227° Southwest 88 101 700 -194 Level Miami Center
Tue 11:08:22 AM 26.3636 -80.1350 205° Southwest 90 104 500 -324 Descending Miami Center
Tue 11:09:24 AM 26.3700 -80.1167 69° East 80 92 100 -387 Descending Miami Center
Tue 11:11:00 AM 26.3667 -80.1000 61° Northeast  Level FlightAware Approximate

Login

Don't have an account? Register now (free) for customized features, flight alerts, and more!